createdAt,value
2018-04-19T00:02:00.236Z,3
2018-04-19T00:05:00.178Z,2.9
2018-04-19T00:08:00.199Z,3.7
2018-04-19T00:11:00.211Z,2.9
2018-04-19T00:14:00.223Z,2.8
2018-04-19T00:17:00.175Z,3
2018-04-19T00:20:00.323Z,2.9
2018-04-19T00:23:00.275Z,3
2018-04-19T00:26:00.262Z,2.8
2018-04-19T00:29:00.290Z,3
2018-04-19T00:32:00.248Z,2.7
2018-04-19T00:35:00.529Z,3
2018-04-19T00:38:00.017Z,2.8
2018-04-19T00:41:00.194Z,3.8
2018-04-19T00:44:00.158Z,2.8
2018-04-19T00:47:00.051Z,3
2018-04-19T00:50:00.056Z,3
2018-04-19T00:53:00.090Z,2.9
2018-04-19T00:56:00.173Z,3.4
2018-04-19T00:59:00.188Z,3.1
2018-04-19T01:02:00.090Z,3.4
2018-04-19T01:05:00.235Z,2.8
2018-04-19T01:08:00.086Z,2.9
2018-04-19T01:11:00.204Z,2.9
2018-04-19T01:14:00.231Z,3
2018-04-19T01:17:00.038Z,3.1
2018-04-19T01:20:00.091Z,3
2018-04-19T01:23:00.242Z,3
2018-04-19T01:26:00.017Z,2.8
2018-04-19T01:29:00.189Z,3.1
2018-04-19T01:32:00.039Z,3
2018-04-19T01:35:00.060Z,3
2018-04-19T01:38:00.137Z,2.8
2018-04-19T01:41:00.130Z,2.8
2018-04-19T01:44:00.130Z,2.9
2018-04-19T01:47:00.083Z,3.1
2018-04-19T01:50:00.226Z,2.7
2018-04-19T01:53:00.172Z,2.8
2018-04-19T01:56:00.224Z,2.9
2018-04-19T01:59:00.100Z,3
2018-04-19T02:02:00.238Z,3.1
2018-04-19T02:05:00.295Z,2.9
2018-04-19T02:08:00.264Z,2.8
2018-04-19T02:11:00.244Z,3.2
2018-04-19T02:14:00.180Z,2.9
2018-04-19T02:17:00.000Z,2.9
2018-04-19T02:20:00.113Z,3.1
2018-04-19T02:22:59.965Z,3
2018-04-19T02:26:00.008Z,3
2018-04-19T02:29:00.204Z,2.9
2018-04-19T02:32:00.340Z,3
2018-04-19T02:35:00.245Z,2.9
2018-04-19T02:38:00.163Z,3
2018-04-19T02:41:00.014Z,3.2
2018-04-19T02:44:00.198Z,2.9
2018-04-19T02:47:00.192Z,3
2018-04-19T02:50:00.226Z,3.2
2018-04-19T02:53:00.055Z,2.9
2018-04-19T02:56:00.127Z,2.9
2018-04-19T02:59:00.149Z,3
2018-04-19T03:02:00.026Z,3.4
2018-04-19T03:05:00.168Z,2.8
2018-04-19T03:08:00.291Z,2.9
2018-04-19T03:11:00.057Z,2.9
2018-04-19T03:14:00.329Z,2.8
2018-04-19T03:17:00.139Z,2.7
2018-04-19T03:20:00.107Z,2.8
2018-04-19T03:23:00.239Z,2.9
2018-04-19T03:26:00.101Z,2.7
2018-04-19T03:29:00.734Z,2.7
2018-04-19T03:32:00.183Z,3.1
2018-04-19T03:35:00.029Z,3
2018-04-19T03:38:00.242Z,2.9
2018-04-19T03:41:00.280Z,3.1
2018-04-19T03:44:00.070Z,2.7
2018-04-19T03:47:00.071Z,2.9
2018-04-19T03:50:00.162Z,3.5
2018-04-19T03:53:00.034Z,3
2018-04-19T03:56:00.222Z,2.9
2018-04-19T03:58:59.952Z,2.9
2018-04-19T04:02:00.133Z,2.9
2018-04-19T04:05:00.136Z,3.1
2018-04-19T04:08:00.170Z,3
2018-04-19T04:11:00.180Z,2.7
2018-04-19T04:14:00.112Z,3
2018-04-19T04:17:00.069Z,3.9
2018-04-19T04:20:00.141Z,3.1
2018-04-19T04:23:00.098Z,3.1
2018-04-19T04:26:00.026Z,2.9
2018-04-19T04:28:59.945Z,3.1
2018-04-19T04:32:00.182Z,3.1
2018-04-19T04:35:00.058Z,3.1
2018-04-19T04:38:00.042Z,2.9
2018-04-19T04:41:00.160Z,3.1
2018-04-19T04:44:00.217Z,3.2
2018-04-19T04:46:59.936Z,2.9
2018-04-19T04:50:00.155Z,3
2018-04-19T04:53:00.052Z,3
2018-04-19T04:56:00.059Z,2.9
2018-04-19T04:59:00.113Z,3
2018-04-19T05:02:00.162Z,3.2
2018-04-19T05:05:00.186Z,2.9
2018-04-19T05:08:00.009Z,2.9
2018-04-19T05:11:00.201Z,3
2018-04-19T05:13:59.945Z,3
2018-04-19T05:17:00.171Z,2.8
2018-04-19T05:19:59.928Z,3.2
2018-04-19T05:23:00.162Z,3.1
2018-04-19T05:26:00.196Z,3
2018-04-19T05:29:00.099Z,3
2018-04-19T05:32:00.124Z,2.9
2018-04-19T05:34:59.950Z,3.4
2018-04-19T05:38:00.082Z,2.7
2018-04-19T05:41:00.180Z,2.8
2018-04-19T05:44:00.092Z,3.1
2018-04-19T05:47:00.053Z,3.1
2018-04-19T05:49:59.965Z,2.9
2018-04-19T05:52:59.915Z,3.1
2018-04-19T05:56:00.149Z,2.9
2018-04-19T05:59:00.149Z,3
2018-04-19T06:02:00.012Z,3
2018-04-19T06:05:00.107Z,3
2018-04-19T06:08:00.231Z,3.1
2018-04-19T06:11:00.145Z,3
2018-04-19T06:14:00.100Z,3.3
2018-04-19T06:17:00.220Z,2.9
2018-04-19T06:20:00.003Z,3
2018-04-19T06:23:00.111Z,2.9
2018-04-19T06:26:00.154Z,3.2
2018-04-19T06:29:00.077Z,2.8
2018-04-19T06:32:00.253Z,2.9
2018-04-19T06:34:59.937Z,2.7
2018-04-19T06:38:00.028Z,2.8
2018-04-19T06:41:00.121Z,3
2018-04-19T06:44:00.073Z,2.9
2018-04-19T06:46:59.998Z,2.8
2018-04-19T06:50:01.919Z,2.7
2018-04-19T06:52:59.927Z,2.9
2018-04-19T06:56:00.031Z,2.7
2018-04-19T06:59:00.037Z,3
2018-04-19T07:01:59.942Z,3.6
2018-04-19T07:05:00.058Z,2.7
2018-04-19T07:08:00.173Z,2.8
2018-04-19T07:10:59.959Z,2.7
2018-04-19T07:14:00.133Z,2.7
2018-04-19T07:17:00.072Z,2.8
2018-04-19T07:19:59.889Z,2.7
2018-04-19T07:23:00.104Z,3.1
2018-04-19T07:25:59.909Z,2.7
2018-04-19T07:29:00.170Z,3
2018-04-19T07:32:00.153Z,2.9
2018-04-19T07:35:00.094Z,3.1
2018-04-19T07:38:00.063Z,3
2018-04-19T07:41:01.921Z,3.5
2018-04-19T07:44:00.257Z,2.7
2018-04-19T07:47:00.085Z,3
2018-04-19T07:50:00.061Z,2.8
2018-04-19T07:53:00.085Z,2.8
2018-04-19T07:55:59.934Z,3
2018-04-19T07:59:00.106Z,2.8
2018-04-19T08:02:00.086Z,2.8
2018-04-19T08:04:59.946Z,2.9
2018-04-19T08:07:59.950Z,2.8
2018-04-19T08:10:59.968Z,2.9
2018-04-19T08:14:00.018Z,2.9
2018-04-19T08:17:00.106Z,2.7
2018-04-19T08:19:59.908Z,2.8
2018-04-19T08:22:59.940Z,3
2018-04-19T08:26:00.172Z,2.7
2018-04-19T08:28:59.944Z,3
2018-04-19T08:31:59.875Z,2.8
2018-04-19T08:35:00.006Z,2.9
2018-04-19T08:37:59.987Z,2.6
2018-04-19T08:40:59.895Z,2.7
2018-04-19T08:44:00.075Z,2.8
2018-04-19T08:47:00.137Z,2.8
2018-04-19T08:50:00.045Z,2.7
2018-04-19T08:53:00.106Z,2.8
2018-04-19T08:55:59.954Z,2.7
2018-04-19T08:59:00.000Z,2.6
2018-04-19T09:02:00.092Z,2.8
2018-04-19T09:05:00.147Z,2.7
2018-04-19T09:08:00.570Z,3
2018-04-19T09:11:00.065Z,2.7
2018-04-19T09:14:00.154Z,2.7
2018-04-19T09:16:59.877Z,2.7
2018-04-19T09:20:00.536Z,2.7
2018-04-19T09:22:59.913Z,2.5
2018-04-19T09:26:00.002Z,2.6
2018-04-19T09:28:59.900Z,2.7
2018-04-19T09:32:00.138Z,2.7
2018-04-19T09:35:00.141Z,2.8
2018-04-19T09:37:59.999Z,2.7
2018-04-19T09:41:00.837Z,3.3
2018-04-19T09:44:00.133Z,2.7
2018-04-19T09:46:59.908Z,2.6
2018-04-19T09:50:00.181Z,2.6
2018-04-19T09:53:00.018Z,2.6
2018-04-19T09:56:00.036Z,2.4
2018-04-19T09:59:00.111Z,2.6
2018-04-19T10:02:00.163Z,2.6
2018-04-19T10:05:00.071Z,2.6
2018-04-19T10:08:00.261Z,2.5
2018-04-19T10:10:59.845Z,2.5
2018-04-19T10:14:00.037Z,3.7
2018-04-19T10:16:59.827Z,3.1
2018-04-19T10:20:00.165Z,4.2
2018-04-19T10:23:00.021Z,2.9
2018-04-19T10:25:59.879Z,3.9
2018-04-19T10:28:59.917Z,9.7
2018-04-19T10:32:00.106Z,6
2018-04-19T10:35:00.164Z,5.6
2018-04-19T10:38:00.039Z,4
2018-04-19T10:41:00.111Z,5.8
2018-04-19T10:43:59.985Z,5.7
2018-04-19T10:47:00.407Z,4.6
2018-04-19T10:50:00.059Z,5.3
2018-04-19T10:53:00.188Z,5.1
2018-04-19T10:55:59.995Z,4.1
2018-04-19T10:59:00.125Z,5.1
2018-04-19T11:02:00.119Z,4.8
2018-04-19T11:05:00.001Z,5
2018-04-19T11:08:00.264Z,4.7
2018-04-19T11:10:59.949Z,4.4
2018-04-19T11:14:00.067Z,3.6
2018-04-19T11:16:59.943Z,4.2
2018-04-19T11:20:00.094Z,3.6
2018-04-19T11:23:00.064Z,4.7
2018-04-19T11:26:01.665Z,4.1
2018-04-19T11:29:00.099Z,4.5
2018-04-19T11:32:02.578Z,3.2
2018-04-19T11:35:00.711Z,4.2
2018-04-19T11:38:00.373Z,4.6
2018-04-19T11:41:00.436Z,3.8
2018-04-19T11:44:00.948Z,4.2
2018-04-19T11:47:00.716Z,4.6
2018-04-19T11:50:00.382Z,3.9
2018-04-19T11:53:02.407Z,3.6
2018-04-19T11:56:02.957Z,5.2
2018-04-19T11:58:59.993Z,5.9
2018-04-19T12:02:00.007Z,3.7
2018-04-19T12:05:00.054Z,3.2
2018-04-19T12:08:00.181Z,4.1
2018-04-19T12:11:00.581Z,4
2018-04-19T12:14:00.563Z,3.8
2018-04-19T12:17:00.178Z,3.1
2018-04-19T12:20:00.865Z,5.5
2018-04-19T12:23:00.937Z,6.8
2018-04-19T12:26:00.162Z,8.3
2018-04-19T12:29:00.385Z,5.2
2018-04-19T12:31:59.959Z,8.7
2018-04-19T12:35:00.064Z,7.7
2018-04-19T12:38:02.046Z,6.6
2018-04-19T12:40:59.880Z,6.5
2018-04-19T12:43:59.926Z,7
2018-04-19T12:46:59.955Z,7
2018-04-19T12:49:59.861Z,6.4
2018-04-19T12:53:00.139Z,7.4
2018-04-19T12:55:59.812Z,8.6
2018-04-19T12:58:59.958Z,8.6
2018-04-19T13:01:59.850Z,6.5
2018-04-19T13:04:59.930Z,5.3
2018-04-19T13:08:00.117Z,6.4
2018-04-19T13:10:59.977Z,7.2
2018-04-19T13:14:00.005Z,5.9
2018-04-19T13:17:00.075Z,7.2
2018-04-19T13:19:59.965Z,5.8
2018-04-19T13:22:59.878Z,7.9
2018-04-19T13:26:00.006Z,6.7
2018-04-19T13:28:59.854Z,4.8
2018-04-19T13:31:59.941Z,5.7
2018-04-19T13:34:59.903Z,5
2018-04-19T13:37:59.839Z,5.4
2018-04-19T13:41:00.078Z,9.2
2018-04-19T13:43:59.965Z,9.4
2018-04-19T13:46:59.937Z,4.7
2018-04-19T13:49:59.973Z,7.3
2018-04-19T13:52:59.862Z,5.9
2018-04-19T13:55:59.846Z,5.6
2018-04-19T13:58:59.984Z,6
2018-04-19T14:02:00.261Z,8
2018-04-19T14:04:59.872Z,4.1
2018-04-19T14:07:59.838Z,6.1
2018-04-19T14:11:00.113Z,5.2
2018-04-19T14:13:59.944Z,6
2018-04-19T14:16:59.843Z,5.2
2018-04-19T14:20:00.562Z,4.9
2018-04-19T14:22:59.937Z,5.4
2018-04-19T14:25:59.821Z,5.5
2018-04-19T14:29:00.077Z,5.2
2018-04-19T14:31:59.890Z,6.4
2018-04-19T14:34:59.809Z,6.1
2018-04-19T14:37:59.802Z,5.3
2018-04-19T14:40:59.902Z,4.5
2018-04-19T14:43:59.768Z,4.8
2018-04-19T14:46:59.967Z,4
2018-04-19T14:49:59.891Z,4.5
2018-04-19T14:52:59.833Z,3.9
2018-04-19T14:55:59.968Z,5.3
2018-04-19T14:58:59.947Z,6
2018-04-19T15:01:59.955Z,4.3
2018-04-19T15:04:59.974Z,4.1
2018-04-19T15:07:59.970Z,5.1
2018-04-19T15:10:59.731Z,4.5
2018-04-19T15:13:59.930Z,4.4
2018-04-19T15:16:59.921Z,4.2
2018-04-19T15:20:00.521Z,4.5
2018-04-19T15:23:00.022Z,4.9
2018-04-19T15:25:59.913Z,4
2018-04-19T15:29:00.558Z,5.1
2018-04-19T15:32:00.069Z,4.8
2018-04-19T15:35:00.431Z,4.3
2018-04-19T15:37:59.852Z,3.5
2018-04-19T15:40:59.764Z,4.3
2018-04-19T15:43:59.996Z,4.5
2018-04-19T15:46:59.931Z,3.4
2018-04-19T15:50:00.294Z,3.6
2018-04-19T15:52:59.738Z,3.8
2018-04-19T15:55:59.896Z,4.4
2018-04-19T15:59:00.343Z,5.8
2018-04-19T16:02:00.971Z,4.2
2018-04-19T16:05:00.296Z,3.5
2018-04-19T16:08:01.261Z,4
2018-04-19T16:10:59.926Z,4.6
2018-04-19T16:13:59.962Z,3.3
2018-04-19T16:16:59.826Z,4.1
2018-04-19T16:19:59.815Z,3.4
2018-04-19T16:22:59.880Z,4.2
2018-04-19T16:25:59.905Z,3.2
2018-04-19T16:29:00.358Z,3.5
2018-04-19T16:31:59.872Z,4.4
2018-04-19T16:34:59.777Z,3.7
2018-04-19T16:37:59.890Z,4.1
2018-04-19T16:41:00.190Z,4.6
2018-04-19T16:43:59.813Z,4.4
2018-04-19T16:46:59.993Z,4.2
2018-04-19T16:49:59.929Z,4.2
2018-04-19T16:52:59.957Z,3.6
2018-04-19T16:56:00.239Z,4
2018-04-19T16:58:59.735Z,3.5
2018-04-19T17:01:59.812Z,3.2
2018-04-19T17:05:00.012Z,3.2
2018-04-19T17:07:59.842Z,4.4
2018-04-19T17:10:59.843Z,3
2018-04-19T17:13:59.922Z,9
2018-04-19T17:16:59.992Z,5
2018-04-19T17:19:59.904Z,6.5
2018-04-19T17:22:59.897Z,4.2
2018-04-19T17:25:59.900Z,5.1
2018-04-19T17:28:59.742Z,6.5
2018-04-19T17:31:59.939Z,5.7
2018-04-19T17:34:59.947Z,3.6
2018-04-19T17:37:59.925Z,5.3
2018-04-19T17:40:59.935Z,4
2018-04-19T17:43:59.729Z,4.2
2018-04-19T17:46:59.923Z,4
2018-04-19T17:49:59.911Z,4.7
2018-04-19T17:52:59.825Z,5.3
2018-04-19T17:55:59.709Z,5.1
2018-04-19T17:58:59.820Z,5.2
2018-04-19T18:01:59.695Z,8
2018-04-19T18:04:59.713Z,7.6
2018-04-19T18:07:59.881Z,5.6
2018-04-19T18:10:59.809Z,18.4
2018-04-19T18:13:59.850Z,7.3
2018-04-19T18:16:59.832Z,9.5
2018-04-19T18:20:00.080Z,6
2018-04-19T18:22:59.900Z,6.1
2018-04-19T18:25:59.934Z,11.5
2018-04-19T18:28:59.917Z,6.8
2018-04-19T18:31:59.793Z,7.8
2018-04-19T18:35:00.105Z,6.6
2018-04-19T18:37:59.828Z,8.5
2018-04-19T18:40:59.793Z,8.5
2018-04-19T18:43:59.761Z,6.9
2018-04-19T18:46:59.713Z,6.9
2018-04-19T18:49:59.969Z,4.7
2018-04-19T18:52:59.699Z,4.3
2018-04-19T18:55:59.895Z,8
2018-04-19T18:58:59.733Z,7.7
2018-04-19T19:01:59.790Z,4.6
2018-04-19T19:04:59.937Z,4.3
2018-04-19T19:07:59.815Z,7.5
2018-04-19T19:10:59.780Z,4.8
2018-04-19T19:13:59.901Z,6.3
2018-04-19T19:16:59.759Z,5.2
2018-04-19T19:19:59.909Z,5
2018-04-19T19:22:59.866Z,3.5
2018-04-19T19:25:59.773Z,6.8
2018-04-19T19:28:59.884Z,7.2
2018-04-19T19:31:59.666Z,4.9
2018-04-19T19:34:59.788Z,4.4
2018-04-19T19:37:59.831Z,7.1
2018-04-19T19:40:59.689Z,4.1
2018-04-19T19:43:59.744Z,5.2
2018-04-19T19:46:59.735Z,4.1
2018-04-19T19:49:59.765Z,5.4
2018-04-19T19:52:59.655Z,3.9
2018-04-19T19:55:59.695Z,3.6
2018-04-19T19:58:59.955Z,4.3
2018-04-19T20:01:59.901Z,4.3
2018-04-19T20:04:59.968Z,4.5
2018-04-19T20:07:59.875Z,5
2018-04-19T20:10:59.789Z,5.5
2018-04-19T20:13:59.833Z,4.3
2018-04-19T20:16:59.847Z,4.4
2018-04-19T20:19:59.830Z,7
2018-04-19T20:22:59.813Z,3.2
2018-04-19T20:25:59.862Z,4.2
2018-04-19T20:28:59.699Z,3.1
2018-04-19T20:31:59.895Z,4.5
2018-04-19T20:34:59.733Z,4.7
2018-04-19T20:38:00.169Z,3.1
2018-04-19T20:40:59.721Z,3.3
2018-04-19T20:43:59.824Z,4.8
2018-04-19T20:46:59.618Z,3.8
2018-04-19T20:49:59.849Z,3
2018-04-19T20:52:59.838Z,3.5
2018-04-19T20:55:59.920Z,3.4
2018-04-19T20:58:59.706Z,3
2018-04-19T21:01:59.980Z,3.2
2018-04-19T21:04:59.921Z,3.5
2018-04-19T21:07:59.844Z,3
2018-04-19T21:11:00.291Z,4
2018-04-19T21:13:59.999Z,3.7
2018-04-19T21:16:59.846Z,3.6
2018-04-19T21:19:59.840Z,2.3
2018-04-19T21:22:59.966Z,3.3
2018-04-19T21:25:59.691Z,4.1
2018-04-19T21:28:59.761Z,3.6
2018-04-19T21:31:59.772Z,3.7
2018-04-19T21:34:59.800Z,3
2018-04-19T21:37:59.675Z,2.9
2018-04-19T21:40:59.857Z,3.5
2018-04-19T21:43:59.649Z,4.5
2018-04-19T21:46:59.739Z,3.5
2018-04-19T21:49:59.827Z,3.1
2018-04-19T21:52:59.815Z,3.2
2018-04-19T21:55:59.661Z,2.9
2018-04-19T21:58:59.675Z,2.5
2018-04-19T22:01:59.885Z,4.6
2018-04-19T22:04:59.826Z,3.6
2018-04-19T22:07:59.804Z,2.6
2018-04-19T22:10:59.732Z,3.5
2018-04-19T22:13:59.811Z,3.6
2018-04-19T22:16:59.876Z,3.1
2018-04-19T22:19:59.849Z,3.5
2018-04-19T22:22:59.706Z,2.8
2018-04-19T22:25:59.865Z,3.4
2018-04-19T22:28:59.841Z,2.7
2018-04-19T22:31:59.853Z,3.8
2018-04-19T22:34:59.688Z,3.2
2018-04-19T22:37:59.909Z,2.5
2018-04-19T22:40:59.932Z,2.5
2018-04-19T22:43:59.741Z,2.6
2018-04-19T22:46:59.602Z,3.1
2018-04-19T22:49:59.793Z,2.4
2018-04-19T22:52:59.858Z,2.4
2018-04-19T22:55:59.867Z,2.7
2018-04-19T22:58:59.667Z,2.7
2018-04-19T23:01:59.673Z,3.7
2018-04-19T23:04:59.837Z,2.9
2018-04-19T23:07:59.834Z,2.6
2018-04-19T23:11:00.266Z,2.5
2018-04-19T23:13:59.649Z,2.4
2018-04-19T23:16:59.830Z,2.5
2018-04-19T23:19:59.679Z,2.6
2018-04-19T23:22:59.730Z,2.5
2018-04-19T23:25:59.728Z,2.2
2018-04-19T23:28:59.756Z,2.3
2018-04-19T23:31:59.610Z,2.4
2018-04-19T23:34:59.680Z,2.3
2018-04-19T23:37:59.749Z,3.3
2018-04-19T23:40:59.833Z,2.5
2018-04-19T23:43:59.746Z,3.1
2018-04-19T23:46:59.814Z,2.4
2018-04-19T23:49:59.580Z,2.5
2018-04-19T23:52:59.652Z,3
2018-04-19T23:55:59.866Z,2.8
2018-04-19T23:58:59.731Z,2.7
